createdAt,value
2023-02-11T00:00:57.257Z,41.33
2023-02-11T00:03:23.735Z,39.30
2023-02-11T00:06:06.048Z,34.78
2023-02-11T00:08:32.455Z,36.33
2023-02-11T00:10:58.844Z,36.78
2023-02-11T00:13:25.847Z,34.10
2023-02-11T00:15:52.557Z,37.95
2023-02-11T00:18:19.286Z,35.03
2023-02-11T00:20:45.959Z,36.53
2023-02-11T00:23:12.353Z,39.67
2023-02-11T00:25:44.517Z,36.42
2023-02-11T00:28:11.907Z,32.40
2023-02-11T00:30:38.510Z,33.55
2023-02-11T00:33:04.976Z,33.20
2023-02-11T00:35:31.349Z,35.03
2023-02-11T00:37:57.938Z,32.35
2023-02-11T00:40:24.620Z,30.73
2023-02-11T00:42:51.084Z,35.20
2023-02-11T00:45:17.679Z,33.30
2023-02-11T00:47:44.151Z,36.63
2023-02-11T00:50:10.705Z,36.22
2023-02-11T00:52:37.098Z,35.72
2023-02-11T00:55:03.679Z,30.25
2023-02-11T00:57:30.032Z,35.08
2023-02-11T00:59:56.419Z,35.88
2023-02-11T01:02:22.829Z,36.42
2023-02-11T01:04:49.303Z,37.65
2023-02-11T01:07:16.096Z,30.33
2023-02-11T01:09:42.470Z,36.58
2023-02-11T01:12:08.833Z,32.30
2023-02-11T01:14:35.202Z,31.25
2023-02-11T01:17:01.598Z,35.35
2023-02-11T01:19:27.966Z,33.10
2023-02-11T01:21:54.282Z,34.42
2023-02-11T01:24:20.618Z,37.55
2023-02-11T01:26:46.983Z,33.08
2023-02-11T01:29:13.326Z,34.17
2023-02-11T01:31:39.807Z,39.88
2023-02-11T01:34:06.193Z,34.90
2023-02-11T01:36:32.607Z,37.75
2023-02-11T01:38:58.958Z,35.05
2023-02-11T01:41:25.451Z,32.30
2023-02-11T01:43:51.945Z,36.10
2023-02-11T01:46:38.426Z,35.75
2023-02-11T01:49:12.386Z,31.90
2023-02-11T01:51:45.635Z,33.47
2023-02-11T01:54:33.465Z,32.42
2023-02-11T01:57:20.087Z,31.75
2023-02-11T02:00:09.374Z,31.35
2023-02-11T02:02:48.866Z,33.97
2023-02-11T02:05:28.908Z,31.13
2023-02-11T02:08:16.710Z,32.08
2023-02-11T02:10:47.013Z,37.60
2023-02-11T02:13:14.437Z,34.35
2023-02-11T02:15:52.863Z,32.72
2023-02-11T02:18:35.400Z,30.85
2023-02-11T02:21:13.882Z,33.92
2023-02-11T02:23:52.388Z,33.13
2023-02-11T02:26:42.453Z,35.28
2023-02-11T02:29:37.775Z,33.83
2023-02-11T02:32:32.932Z,33.25
2023-02-11T02:35:18.082Z,30.95
2023-02-11T02:37:51.436Z,33.50
2023-02-11T02:40:26.883Z,32.55
2023-02-11T02:42:55.176Z,38.03
2023-02-11T02:45:22.025Z,32.95
2023-02-11T02:47:48.472Z,33.90
2023-02-11T02:50:20.043Z,34.58
2023-02-11T02:53:08.360Z,29.05
2023-02-11T02:55:45.560Z,33.17
2023-02-11T02:58:34.193Z,36.30
2023-02-11T03:01:36.148Z,32.72
2023-02-11T03:04:19.295Z,31.83
2023-02-11T03:06:55.073Z,29.98
2023-02-11T03:10:02.657Z,32.55
2023-02-11T03:12:32.478Z,36.00
2023-02-11T03:15:01.039Z,31.92
2023-02-11T03:17:30.821Z,29.52
2023-02-11T03:19:59.276Z,36.25
2023-02-11T03:22:33.343Z,36.50
2023-02-11T03:25:01.578Z,28.48
2023-02-11T03:27:38.716Z,29.33
2023-02-11T03:30:19.013Z,29.60
2023-02-11T03:32:51.864Z,28.92
2023-02-11T03:35:24.294Z,33.95
2023-02-11T03:38:06.712Z,38.13
2023-02-11T03:40:37.748Z,24.98
2023-02-11T03:43:13.012Z,33.92
2023-02-11T03:48:20.950Z,31.58
2023-02-11T03:50:50.175Z,34.13
2023-02-11T03:53:17.692Z,30.83
2023-02-11T03:55:47.332Z,33.83
2023-02-11T03:58:13.745Z,30.80
2023-02-11T04:00:42.604Z,31.25
2023-02-11T04:03:10.249Z,36.20
2023-02-11T04:05:37.307Z,31.88
2023-02-11T04:08:04.006Z,30.52
2023-02-11T04:10:30.699Z,33.47
2023-02-11T04:12:57.091Z,31.80
2023-02-11T04:15:24.435Z,34.13
2023-02-11T04:17:51.137Z,30.77
2023-02-11T04:20:17.735Z,35.22
2023-02-11T04:22:44.100Z,35.38
2023-02-11T04:25:10.694Z,30.65
2023-02-11T04:27:37.468Z,30.67
2023-02-11T04:30:05.298Z,29.27
2023-02-11T04:32:31.894Z,31.08
2023-02-11T04:34:58.258Z,36.95
2023-02-11T04:37:24.620Z,35.83
2023-02-11T04:39:50.961Z,31.08
2023-02-11T04:42:17.385Z,29.65
2023-02-11T04:44:43.740Z,33.75
2023-02-11T04:47:12.590Z,31.63
2023-02-11T04:49:39.063Z,34.50
2023-02-11T04:52:05.597Z,37.13
2023-02-11T04:54:31.983Z,35.58
2023-02-11T04:56:58.356Z,32.85
2023-02-11T04:59:24.993Z,31.65
2023-02-11T05:01:51.340Z,36.05
2023-02-11T05:04:18.208Z,41.78
2023-02-11T05:06:44.695Z,39.83
2023-02-11T05:09:12.871Z,40.65
2023-02-11T05:11:39.437Z,39.83
2023-02-11T05:14:07.029Z,49.78
2023-02-11T05:16:33.774Z,48.50
2023-02-11T05:19:00.533Z,35.47
2023-02-11T05:21:26.951Z,34.70
2023-02-11T05:23:53.320Z,42.15
2023-02-11T05:26:19.782Z,48.42
2023-02-11T05:28:46.207Z,44.28
2023-02-11T05:31:14.512Z,44.85
2023-02-11T05:33:41.364Z,44.60
2023-02-11T05:36:11.218Z,50.17
2023-02-11T05:38:38.396Z,43.67
2023-02-11T05:41:06.616Z,46.72
2023-02-11T05:43:35.010Z,51.28
2023-02-11T05:46:01.650Z,47.72
2023-02-11T05:48:28.036Z,52.30
2023-02-11T05:50:54.418Z,45.85
2023-02-11T05:53:20.798Z,44.90
2023-02-11T05:55:47.245Z,43.20
2023-02-11T05:58:13.646Z,54.60
2023-02-11T06:00:40.251Z,44.90
2023-02-11T06:03:06.663Z,44.13
2023-02-11T06:05:33.105Z,52.83
2023-02-11T06:07:59.505Z,46.33
2023-02-11T06:10:26.423Z,50.78
2023-02-11T06:12:52.818Z,49.58
2023-02-11T06:15:19.314Z,41.92
2023-02-11T06:17:45.636Z,39.55
2023-02-11T06:20:12.184Z,53.78
2023-02-11T06:22:38.536Z,49.83
2023-02-11T06:25:05.619Z,51.03
2023-02-11T06:27:32.025Z,43.15
2023-02-11T06:29:58.401Z,44.88
2023-02-11T06:32:42.793Z,50.50
2023-02-11T06:35:12.324Z,49.90
2023-02-11T06:37:39.328Z,49.75
2023-02-11T06:40:06.272Z,49.25
2023-02-11T06:42:32.667Z,51.90
2023-02-11T06:44:59.045Z,54.53
2023-02-11T06:47:25.439Z,52.13
2023-02-11T06:49:51.809Z,56.35
2023-02-11T06:52:18.197Z,54.83
2023-02-11T06:54:44.566Z,53.90
2023-02-11T06:57:11.009Z,51.13
2023-02-11T06:59:37.422Z,47.80
2023-02-11T07:02:04.090Z,50.70
2023-02-11T07:04:30.546Z,55.05
2023-02-11T07:06:56.933Z,46.85
2023-02-11T07:09:23.286Z,52.13
2023-02-11T07:11:49.697Z,60.92
2023-02-11T07:14:16.077Z,53.28
2023-02-11T07:16:42.572Z,53.05
2023-02-11T07:19:08.970Z,53.72
2023-02-11T07:21:35.579Z,53.45
2023-02-11T07:24:02.127Z,53.85
2023-02-11T07:26:29.220Z,52.10
2023-02-11T07:28:55.622Z,51.15
2023-02-11T07:31:25.126Z,52.10
2023-02-11T07:33:53.755Z,56.80
2023-02-11T07:36:20.191Z,49.63
2023-02-11T07:38:47.127Z,50.15
2023-02-11T07:41:16.552Z,61.47
2023-02-11T07:43:43.459Z,57.95
2023-02-11T07:46:16.170Z,50.58
2023-02-11T07:48:42.653Z,55.08
2023-02-11T07:51:21.066Z,51.90
2023-02-11T07:53:48.232Z,56.53
2023-02-11T07:56:16.374Z,48.88
2023-02-11T07:58:43.198Z,54.75
2023-02-11T08:01:12.211Z,48.55
2023-02-11T08:03:40.222Z,49.85
2023-02-11T08:06:08.773Z,63.20
2023-02-11T08:08:35.262Z,49.97
2023-02-11T08:11:10.283Z,56.13
2023-02-11T08:13:36.956Z,56.25
2023-02-11T08:16:04.312Z,63.10
2023-02-11T08:18:31.731Z,52.53
2023-02-11T08:21:04.856Z,48.13
2023-02-11T08:23:31.472Z,63.92
2023-02-11T08:26:04.883Z,59.17
2023-02-11T08:28:32.027Z,58.72
2023-02-11T08:30:58.501Z,61.65
2023-02-11T08:33:24.956Z,58.63
2023-02-11T08:35:51.468Z,60.60
2023-02-11T08:38:17.820Z,57.00
2023-02-11T08:40:44.351Z,56.92
2023-02-11T08:43:10.800Z,55.92
2023-02-11T08:45:37.487Z,59.75
2023-02-11T08:48:04.011Z,57.15
2023-02-11T08:50:30.610Z,62.40
2023-02-11T08:52:56.976Z,65.88
2023-02-11T08:55:23.346Z,64.25
2023-02-11T08:57:49.717Z,56.90
2023-02-11T09:00:17.410Z,58.97
2023-02-11T09:02:43.868Z,62.25
2023-02-11T09:05:10.365Z,63.80
2023-02-11T09:07:36.756Z,71.55
2023-02-11T09:10:03.560Z,55.78
2023-02-11T09:12:29.921Z,70.28
2023-02-11T09:14:56.384Z,65.05
2023-02-11T09:17:22.865Z,65.00
2023-02-11T09:19:49.196Z,63.65
2023-02-11T09:22:15.726Z,65.57
2023-02-11T09:24:42.095Z,65.07
2023-02-11T09:27:08.547Z,65.53
2023-02-11T09:29:35.042Z,60.08
2023-02-11T09:32:01.607Z,67.32
2023-02-11T09:34:35.408Z,58.70
2023-02-11T09:37:02.269Z,65.82
2023-02-11T09:39:29.264Z,68.90
2023-02-11T09:42:17.463Z,63.15
2023-02-11T09:44:46.061Z,61.67
2023-02-11T09:47:35.366Z,67.18
2023-02-11T09:50:12.260Z,62.75
2023-02-11T09:52:50.094Z,74.95
2023-02-11T09:55:34.127Z,60.97
2023-02-11T09:58:03.454Z,68.38
2023-02-11T10:00:53.416Z,63.30
2023-02-11T10:03:41.481Z,60.30
2023-02-11T10:06:19.598Z,61.38
2023-02-11T10:09:06.718Z,64.13
2023-02-11T10:12:01.338Z,66.68
2023-02-11T10:14:46.309Z,68.00
2023-02-11T10:17:31.829Z,64.60
2023-02-11T10:22:41.266Z,53.38
2023-02-11T10:25:27.556Z,58.80
2023-02-11T10:27:57.984Z,65.93
2023-02-11T10:30:40.556Z,62.60
2023-02-11T10:33:19.973Z,60.08
2023-02-11T10:35:46.440Z,61.72
2023-02-11T10:38:12.953Z,69.30
2023-02-11T10:40:39.474Z,58.85
2023-02-11T10:43:13.372Z,63.55
2023-02-11T10:45:51.224Z,62.72
2023-02-11T10:48:42.395Z,71.32
2023-02-11T10:51:15.766Z,58.35
2023-02-11T10:53:42.204Z,61.35
2023-02-11T10:56:12.597Z,63.80
2023-02-11T10:58:45.860Z,59.75
2023-02-11T11:01:24.037Z,63.17
2023-02-11T11:03:52.344Z,56.38
2023-02-11T11:06:30.754Z,60.85
2023-02-11T11:08:57.443Z,59.55
2023-02-11T11:11:25.823Z,63.78
2023-02-11T11:13:52.150Z,72.47
2023-02-11T11:16:20.804Z,70.78
2023-02-11T11:18:49.819Z,70.35
2023-02-11T11:21:19.105Z,70.38
2023-02-11T11:24:17.340Z,69.45
2023-02-11T11:26:47.721Z,72.20
2023-02-11T11:29:19.133Z,70.00
2023-02-11T11:31:57.777Z,69.78
2023-02-11T11:34:33.926Z,73.70
2023-02-11T11:37:09.493Z,70.72
2023-02-11T11:39:36.254Z,75.13
2023-02-11T11:42:21.816Z,72.95
2023-02-11T11:47:29.444Z,78.13
2023-02-11T11:50:20.127Z,75.55
2023-02-11T11:52:53.794Z,69.13
2023-02-11T11:55:31.017Z,76.00
2023-02-11T11:57:58.324Z,73.60
2023-02-11T12:00:33.594Z,80.32
2023-02-11T12:03:28.572Z,77.28
2023-02-11T12:06:28.672Z,88.00
2023-02-11T12:09:09.710Z,77.55
2023-02-11T12:11:39.122Z,82.13
2023-02-11T12:14:15.671Z,70.05
2023-02-11T12:17:12.675Z,71.50
2023-02-11T12:19:58.025Z,76.07
2023-02-11T12:22:42.860Z,69.72
2023-02-11T12:25:21.417Z,67.18
2023-02-11T12:27:54.640Z,69.13
2023-02-11T12:30:39.429Z,68.85
2023-02-11T12:33:33.084Z,74.80
2023-02-11T12:36:09.631Z,70.55
2023-02-11T12:38:49.251Z,68.55
2023-02-11T12:41:15.612Z,72.57
2023-02-11T12:43:44.466Z,66.78
2023-02-11T12:46:32.520Z,69.38
2023-02-11T12:49:42.920Z,70.90
2023-02-11T12:52:28.038Z,73.90
2023-02-11T12:55:02.309Z,74.78
2023-02-11T12:57:32.220Z,78.43
2023-02-11T13:00:15.092Z,67.57
2023-02-11T13:02:55.400Z,82.43
2023-02-11T13:05:40.467Z,70.75
2023-02-11T13:08:16.202Z,67.85
2023-02-11T13:10:53.193Z,70.13
2023-02-11T13:13:25.087Z,73.70
2023-02-11T13:16:22.680Z,82.90
2023-02-11T13:19:03.203Z,65.57
2023-02-11T13:21:33.500Z,63.35
2023-02-11T13:24:41.798Z,72.47
2023-02-11T13:27:36.316Z,70.82
2023-02-11T13:30:32.351Z,65.32
2023-02-11T13:33:00.579Z,69.97
2023-02-11T13:35:35.054Z,68.35
2023-02-11T13:38:04.809Z,66.75
2023-02-11T13:40:36.571Z,68.13
2023-02-11T13:43:05.575Z,66.47
2023-02-11T13:45:45.309Z,69.93
2023-02-11T13:48:27.270Z,70.35
2023-02-11T13:50:56.940Z,70.47
2023-02-11T13:53:24.063Z,64.18
2023-02-11T13:55:54.860Z,63.05
2023-02-11T13:58:27.072Z,63.60
2023-02-11T14:00:53.815Z,65.50
2023-02-11T14:03:50.306Z,60.03
2023-02-11T14:06:42.029Z,57.97
2023-02-11T14:09:14.181Z,66.85
2023-02-11T14:11:43.485Z,65.50
2023-02-11T14:14:31.627Z,66.28
2023-02-11T14:17:07.201Z,55.88
2023-02-11T14:19:43.669Z,70.82
2023-02-11T14:22:16.856Z,68.15
2023-02-11T14:24:49.069Z,61.97
2023-02-11T14:27:21.239Z,66.18
2023-02-11T14:30:06.003Z,64.88
2023-02-11T14:32:49.034Z,67.57
2023-02-11T14:35:19.646Z,70.65
2023-02-11T14:37:57.255Z,62.50
2023-02-11T14:40:26.689Z,72.63
2023-02-11T14:42:54.703Z,63.60
2023-02-11T14:45:29.212Z,60.25
2023-02-11T14:48:03.669Z,70.23
2023-02-11T14:50:46.223Z,66.25
2023-02-11T14:53:16.941Z,62.05
2023-02-11T14:55:46.735Z,69.35
2023-02-11T14:58:20.853Z,58.63
2023-02-11T15:00:55.910Z,58.50
2023-02-11T15:03:41.094Z,63.35
2023-02-11T15:06:25.039Z,57.22
2023-02-11T15:09:00.747Z,59.47
2023-02-11T15:11:31.037Z,57.72
2023-02-11T15:13:59.712Z,61.78
2023-02-11T15:16:28.696Z,60.20
2023-02-11T15:18:59.551Z,54.63
2023-02-11T15:21:29.995Z,58.65
2023-02-11T15:23:57.663Z,62.00
2023-02-11T15:26:24.344Z,53.55
2023-02-11T15:28:52.586Z,57.35
2023-02-11T15:31:23.335Z,62.05
2023-02-11T15:33:50.922Z,59.92
2023-02-11T15:36:20.729Z,59.83
2023-02-11T15:39:29.309Z,55.45
2023-02-11T15:41:55.700Z,57.45
2023-02-11T15:44:30.068Z,46.22
2023-02-11T15:46:56.612Z,59.13
2023-02-11T15:49:24.778Z,58.05
2023-02-11T15:51:53.972Z,62.45
2023-02-11T15:54:28.107Z,59.05
2023-02-11T15:57:02.120Z,64.57
2023-02-11T15:59:38.286Z,61.60
2023-02-11T16:02:15.011Z,65.20
2023-02-11T16:04:53.631Z,65.55
2023-02-11T16:07:41.550Z,62.53
2023-02-11T16:10:23.243Z,64.45
2023-02-11T16:12:53.619Z,57.72
2023-02-11T16:15:31.250Z,66.90
2023-02-11T16:17:57.789Z,69.32
2023-02-11T16:20:24.200Z,64.97
2023-02-11T16:22:50.857Z,69.18
2023-02-11T16:25:20.626Z,60.45
2023-02-11T16:27:52.340Z,62.30
2023-02-11T16:30:28.819Z,61.35
2023-02-11T16:32:55.341Z,71.65
2023-02-11T16:35:21.734Z,67.45
2023-02-11T16:37:48.115Z,68.53
2023-02-11T16:40:14.575Z,64.53
2023-02-11T16:42:40.968Z,63.22
2023-02-11T16:45:07.722Z,65.13
2023-02-11T16:47:35.824Z,62.63
2023-02-11T16:50:02.861Z,68.30
2023-02-11T16:52:31.652Z,67.40
2023-02-11T16:54:59.617Z,66.75
2023-02-11T16:57:29.541Z,66.63
2023-02-11T16:59:56.508Z,68.78
2023-02-11T17:02:26.578Z,65.28
2023-02-11T17:04:54.475Z,66.07
2023-02-11T17:07:21.586Z,67.28
2023-02-11T17:09:48.116Z,74.38
2023-02-11T17:12:14.496Z,71.65
2023-02-11T17:14:40.825Z,66.80
2023-02-11T17:17:08.008Z,71.70
2023-02-11T17:19:34.433Z,68.32
2023-02-11T17:22:00.884Z,71.35
2023-02-11T17:24:27.284Z,76.57
2023-02-11T17:26:54.672Z,73.95
2023-02-11T17:29:23.338Z,73.63
2023-02-11T17:31:51.777Z,77.05
2023-02-11T17:34:19.463Z,78.22
2023-02-11T17:36:46.174Z,75.45
2023-02-11T17:39:12.527Z,75.25
2023-02-11T17:41:40.197Z,80.07
2023-02-11T17:44:07.941Z,73.90
2023-02-11T17:46:35.386Z,70.85
2023-02-11T17:49:02.732Z,73.00
2023-02-11T17:51:37.216Z,74.55
2023-02-11T17:54:06.895Z,70.90
2023-02-11T17:56:35.514Z,78.35
2023-02-11T17:59:04.510Z,72.80
2023-02-11T18:01:33.297Z,77.60
2023-02-11T18:04:00.438Z,92.00
2023-02-11T18:06:28.999Z,75.13
2023-02-11T18:08:59.782Z,77.22
2023-02-11T18:11:27.759Z,81.28
2023-02-11T18:13:57.044Z,77.13
2023-02-11T18:16:25.702Z,80.07
2023-02-11T18:18:52.084Z,75.55
2023-02-11T18:21:20.596Z,77.55
2023-02-11T18:23:48.030Z,74.75
2023-02-11T18:26:15.988Z,72.68
2023-02-11T18:28:45.535Z,73.72
2023-02-11T18:31:14.010Z,77.20
2023-02-11T18:33:41.198Z,79.82
2023-02-11T18:36:09.876Z,84.43
2023-02-11T18:38:36.573Z,79.63
2023-02-11T18:41:03.543Z,75.80
2023-02-11T18:43:34.238Z,73.85
2023-02-11T18:46:02.763Z,72.25
2023-02-11T18:48:29.348Z,79.30
2023-02-11T18:50:55.935Z,73.13
2023-02-11T18:53:23.236Z,74.95
2023-02-11T18:55:49.857Z,83.00
2023-02-11T18:58:16.440Z,76.03
2023-02-11T19:00:46.729Z,72.88
2023-02-11T19:03:13.283Z,81.15
2023-02-11T19:05:48.025Z,80.50
2023-02-11T19:08:14.730Z,73.05
2023-02-11T19:10:43.037Z,74.22
2023-02-11T19:13:10.049Z,72.72
2023-02-11T19:15:43.695Z,75.40
2023-02-11T19:18:11.403Z,73.68
2023-02-11T19:20:43.516Z,70.72
2023-02-11T19:23:10.797Z,75.80
2023-02-11T19:25:37.550Z,77.00
2023-02-11T19:28:04.355Z,74.88
2023-02-11T19:30:30.877Z,79.00
2023-02-11T19:32:57.686Z,75.10
2023-02-11T19:35:25.126Z,77.35
2023-02-11T19:37:51.919Z,80.63
2023-02-11T19:40:20.429Z,73.85
2023-02-11T19:42:47.064Z,76.63
2023-02-11T19:45:13.518Z,76.32
2023-02-11T19:47:39.908Z,70.97
2023-02-11T19:50:06.992Z,69.93
2023-02-11T19:52:33.419Z,73.68
2023-02-11T19:55:00.487Z,72.18
2023-02-11T19:57:26.883Z,78.10
2023-02-11T19:59:54.889Z,69.82
2023-02-11T20:02:21.490Z,70.05
2023-02-11T20:04:48.053Z,76.60
2023-02-11T20:07:14.622Z,70.90
2023-02-11T20:09:42.484Z,79.57
2023-02-11T20:12:08.946Z,72.25
2023-02-11T20:14:35.506Z,78.15
2023-02-11T20:17:01.845Z,79.85
2023-02-11T20:19:30.255Z,70.75
2023-02-11T20:21:56.918Z,75.13
2023-02-11T20:24:24.511Z,74.75
2023-02-11T20:26:55.201Z,73.15
2023-02-11T20:29:22.169Z,73.47
2023-02-11T20:31:49.957Z,70.95
2023-02-11T20:34:17.550Z,73.78
2023-02-11T20:36:51.288Z,70.72
2023-02-11T20:39:18.543Z,68.22
2023-02-11T20:41:45.975Z,71.78
2023-02-11T20:44:12.430Z,70.82
2023-02-11T20:46:42.089Z,69.82
2023-02-11T20:49:11.964Z,73.50
2023-02-11T20:51:38.751Z,71.45
2023-02-11T20:54:06.357Z,75.00
2023-02-11T20:56:35.897Z,65.40
2023-02-11T20:59:03.997Z,71.63
2023-02-11T21:01:43.363Z,70.97
2023-02-11T21:04:15.278Z,69.95
2023-02-11T21:06:47.284Z,69.82
2023-02-11T21:09:17.317Z,64.22
2023-02-11T21:11:43.675Z,72.00
2023-02-11T21:14:11.893Z,67.13
2023-02-11T21:16:39.172Z,61.78
2023-02-11T21:19:06.211Z,68.93
2023-02-11T21:21:35.021Z,64.30
2023-02-11T21:24:01.454Z,69.32
2023-02-11T21:26:28.401Z,62.63
2023-02-11T21:28:55.151Z,63.92
2023-02-11T21:31:27.193Z,65.95
2023-02-11T21:33:59.244Z,67.80
2023-02-11T21:36:26.912Z,69.40
2023-02-11T21:38:53.306Z,69.70
2023-02-11T21:41:23.909Z,68.43
2023-02-11T21:43:50.939Z,66.53
2023-02-11T21:46:18.224Z,71.53
2023-02-11T21:48:44.679Z,74.00
2023-02-11T21:51:33.514Z,67.78
2023-02-11T21:54:01.606Z,69.82
2023-02-11T21:56:29.722Z,71.85
2023-02-11T21:58:57.734Z,69.90
2023-02-11T22:01:27.501Z,66.53
2023-02-11T22:03:54.295Z,65.43
2023-02-11T22:06:23.764Z,69.30
2023-02-11T22:09:00.748Z,65.35
2023-02-11T22:11:27.132Z,66.25
2023-02-11T22:13:57.882Z,64.43
2023-02-11T22:16:25.672Z,64.63
2023-02-11T22:18:53.204Z,62.45
2023-02-11T22:21:22.098Z,66.88
2023-02-11T22:23:49.626Z,67.00
2023-02-11T22:26:18.921Z,63.22
2023-02-11T22:28:46.930Z,62.65
2023-02-11T22:31:16.397Z,65.35
2023-02-11T22:33:43.182Z,62.42
2023-02-11T22:36:16.654Z,67.00
2023-02-11T22:38:43.090Z,68.45
2023-02-11T22:41:10.575Z,60.70
2023-02-11T22:43:37.961Z,62.63
2023-02-11T22:46:06.358Z,66.82
2023-02-11T22:48:34.620Z,64.97
2023-02-11T22:51:12.739Z,63.72
2023-02-11T22:53:39.700Z,63.72
2023-02-11T22:56:08.756Z,62.45
2023-02-11T22:58:35.915Z,67.70
2023-02-11T23:01:03.740Z,69.35
2023-02-11T23:03:31.309Z,58.83
2023-02-11T23:05:59.334Z,68.72
2023-02-11T23:08:27.673Z,63.05
2023-02-11T23:10:54.319Z,61.72
2023-02-11T23:13:20.739Z,69.25
2023-02-11T23:15:47.606Z,64.18
2023-02-11T23:18:14.561Z,66.82
2023-02-11T23:20:43.237Z,65.13
2023-02-11T23:23:09.677Z,59.05
2023-02-11T23:25:42.777Z,65.43
2023-02-11T23:28:09.880Z,67.05
2023-02-11T23:30:36.576Z,62.85
2023-02-11T23:33:03.001Z,64.05
2023-02-11T23:35:29.350Z,64.32
2023-02-11T23:37:55.724Z,62.42
2023-02-11T23:40:22.223Z,62.15
2023-02-11T23:42:48.966Z,64.45
2023-02-11T23:45:15.459Z,65.43
2023-02-11T23:47:41.856Z,62.22
2023-02-11T23:50:09.301Z,66.88
2023-02-11T23:52:35.782Z,63.65
2023-02-11T23:55:02.191Z,61.47
2023-02-11T23:57:28.634Z,64.95
2023-02-11T23:59:55.027Z,66.82
